sensor_id;sensor_type;location;lat;lon;timestamp;P1;durP1;ratioP1;P2;durP2;ratioP2
21412;SDS011;10867;45.084;5.732;2022-09-09T00:02:29;5.15;;;1.70;;
21412;SDS011;10867;45.084;5.732;2022-09-09T00:56:23;5.93;;;2.10;;
21412;SDS011;10867;45.084;5.732;2022-09-09T01:13:34;7.10;;;1.88;;
21412;SDS011;10867;45.084;5.732;2022-09-09T01:16:48;6.63;;;1.90;;
21412;SDS011;10867;45.084;5.732;2022-09-09T04:01:00;5.67;;;2.10;;
21412;SDS011;10867;45.084;5.732;2022-09-09T04:04:06;7.15;;;2.22;;
21412;SDS011;10867;45.084;5.732;2022-09-09T05:25:29;7.68;;;3.80;;
21412;SDS011;10867;45.084;5.732;2022-09-09T05:41:55;11.25;;;4.53;;
21412;SDS011;10867;45.084;5.732;2022-09-09T05:58:15;6.67;;;2.30;;
21412;SDS011;10867;45.084;5.732;2022-09-09T06:00:45;5.85;;;2.38;;
21412;SDS011;10867;45.084;5.732;2022-09-09T06:03:11;6.65;;;1.80;;
21412;SDS011;10867;45.084;5.732;2022-09-09T06:05:38;8.65;;;2.47;;
21412;SDS011;10867;45.084;5.732;2022-09-09T06:08:04;7.78;;;3.03;;
21412;SDS011;10867;45.084;5.732;2022-09-09T06:10:30;9.25;;;3.72;;
21412;SDS011;10867;45.084;5.732;2022-09-09T06:12:56;8.50;;;3.25;;
21412;SDS011;10867;45.084;5.732;2022-09-09T06:15:22;8.47;;;3.10;;
21412;SDS011;10867;45.084;5.732;2022-09-09T06:17:53;7.70;;;2.33;;
21412;SDS011;10867;45.084;5.732;2022-09-09T06:20:20;5.15;;;2.35;;
21412;SDS011;10867;45.084;5.732;2022-09-09T06:22:47;9.27;;;2.17;;
21412;SDS011;10867;45.084;5.732;2022-09-09T06:25:13;6.77;;;2.40;;
21412;SDS011;10867;45.084;5.732;2022-09-09T06:27:39;6.10;;;2.53;;
21412;SDS011;10867;45.084;5.732;2022-09-09T06:30:07;6.15;;;2.47;;
21412;SDS011;10867;45.084;5.732;2022-09-09T06:32:34;3.87;;;2.10;;
21412;SDS011;10867;45.084;5.732;2022-09-09T06:35:02;5.78;;;2.00;;
21412;SDS011;10867;45.084;5.732;2022-09-09T06:37:28;6.40;;;2.25;;
21412;SDS011;10867;45.084;5.732;2022-09-09T06:39:54;9.60;;;2.03;;
21412;SDS011;10867;45.084;5.732;2022-09-09T06:42:20;5.25;;;2.13;;
21412;SDS011;10867;45.084;5.732;2022-09-09T06:44:46;6.73;;;2.93;;
21412;SDS011;10867;45.084;5.732;2022-09-09T06:47:13;8.50;;;3.50;;
21412;SDS011;10867;45.084;5.732;2022-09-09T06:49:39;6.43;;;3.00;;
21412;SDS011;10867;45.084;5.732;2022-09-09T06:52:05;9.77;;;2.22;;
21412;SDS011;10867;45.084;5.732;2022-09-09T06:54:31;4.30;;;2.10;;
21412;SDS011;10867;45.084;5.732;2022-09-09T06:56:58;6.45;;;2.20;;
21412;SDS011;10867;45.084;5.732;2022-09-09T06:59:25;10.05;;;2.47;;
21412;SDS011;10867;45.084;5.732;2022-09-09T07:01:53;7.90;;;2.13;;
21412;SDS011;10867;45.084;5.732;2022-09-09T07:04:20;10.25;;;3.05;;
21412;SDS011;10867;45.084;5.732;2022-09-09T07:06:46;5.70;;;2.75;;
21412;SDS011;10867;45.084;5.732;2022-09-09T07:09:13;6.90;;;3.20;;
21412;SDS011;10867;45.084;5.732;2022-09-09T07:11:41;8.17;;;3.70;;
21412;SDS011;10867;45.084;5.732;2022-09-09T07:14:08;8.53;;;4.20;;
21412;SDS011;10867;45.084;5.732;2022-09-09T07:16:37;7.50;;;3.97;;
21412;SDS011;10867;45.084;5.732;2022-09-09T07:21:40;5.78;;;2.58;;
21412;SDS011;10867;45.084;5.732;2022-09-09T07:24:06;7.55;;;2.55;;
21412;SDS011;10867;45.084;5.732;2022-09-09T07:26:35;8.55;;;2.78;;
21412;SDS011;10867;45.084;5.732;2022-09-09T07:29:01;5.60;;;2.10;;
21412;SDS011;10867;45.084;5.732;2022-09-09T07:31:28;4.57;;;1.90;;
21412;SDS011;10867;45.084;5.732;2022-09-09T07:33:59;5.23;;;2.20;;
21412;SDS011;10867;45.084;5.732;2022-09-09T07:36:31;7.03;;;2.30;;
21412;SDS011;10867;45.084;5.732;2022-09-09T07:38:58;5.60;;;2.10;;
21412;SDS011;10867;45.084;5.732;2022-09-09T07:41:32;6.57;;;2.10;;
21412;SDS011;10867;45.084;5.732;2022-09-09T07:43:59;4.95;;;1.83;;
21412;SDS011;10867;45.084;5.732;2022-09-09T07:46:26;5.15;;;2.30;;
21412;SDS011;10867;45.084;5.732;2022-09-09T07:48:53;6.35;;;2.45;;
21412;SDS011;10867;45.084;5.732;2022-09-09T07:51:20;6.03;;;2.60;;
21412;SDS011;10867;45.084;5.732;2022-09-09T07:53:47;7.47;;;2.78;;
21412;SDS011;10867;45.084;5.732;2022-09-09T07:56:15;4.38;;;2.28;;
21412;SDS011;10867;45.084;5.732;2022-09-09T07:58:48;6.70;;;2.05;;
21412;SDS011;10867;45.084;5.732;2022-09-09T08:01:16;6.95;;;2.40;;
21412;SDS011;10867;45.084;5.732;2022-09-09T08:03:43;4.85;;;2.10;;
21412;SDS011;10867;45.084;5.732;2022-09-09T08:06:10;5.30;;;2.20;;
21412;SDS011;10867;45.084;5.732;2022-09-09T08:08:40;7.40;;;2.10;;
21412;SDS011;10867;45.084;5.732;2022-09-09T08:11:25;6.50;;;1.90;;
21412;SDS011;10867;45.084;5.732;2022-09-09T08:14:12;6.25;;;2.00;;
21412;SDS011;10867;45.084;5.732;2022-09-09T08:16:50;4.70;;;1.90;;
21412;SDS011;10867;45.084;5.732;2022-09-09T08:19:29;4.70;;;1.80;;
21412;SDS011;10867;45.084;5.732;2022-09-09T08:22:00;4.67;;;1.63;;
21412;SDS011;10867;45.084;5.732;2022-09-09T08:24:39;7.20;;;2.78;;
21412;SDS011;10867;45.084;5.732;2022-09-09T08:27:06;4.03;;;1.60;;
21412;SDS011;10867;45.084;5.732;2022-09-09T08:29:39;5.60;;;1.83;;
21412;SDS011;10867;45.084;5.732;2022-09-09T08:32:06;5.95;;;1.90;;
21412;SDS011;10867;45.084;5.732;2022-09-09T08:34:32;5.35;;;1.70;;
21412;SDS011;10867;45.084;5.732;2022-09-09T08:36:58;6.13;;;2.10;;
21412;SDS011;10867;45.084;5.732;2022-09-09T08:39:24;4.50;;;1.83;;
21412;SDS011;10867;45.084;5.732;2022-09-09T08:49:58;4.07;;;1.27;;
21412;SDS011;10867;45.084;5.732;2022-09-09T08:52:37;3.08;;;1.40;;
21412;SDS011;10867;45.084;5.732;2022-09-09T08:58:02;3.25;;;1.30;;
21412;SDS011;10867;45.084;5.732;2022-09-09T09:00:52;2.40;;;1.08;;
21412;SDS011;10867;45.084;5.732;2022-09-09T09:15:46;3.47;;;1.20;;
21412;SDS011;10867;45.084;5.732;2022-09-09T09:21:13;3.38;;;1.20;;
21412;SDS011;10867;45.084;5.732;2022-09-09T09:24:06;3.83;;;1.40;;
21412;SDS011;10867;45.084;5.732;2022-09-09T09:27:13;3.83;;;1.50;;
21412;SDS011;10867;45.084;5.732;2022-09-09T09:29:42;4.15;;;1.60;;
21412;SDS011;10867;45.084;5.732;2022-09-09T09:32:18;3.05;;;1.40;;
21412;SDS011;10867;45.084;5.732;2022-09-09T09:34:57;3.55;;;1.60;;
21412;SDS011;10867;45.084;5.732;2022-09-09T09:37:32;4.15;;;1.60;;
21412;SDS011;10867;45.084;5.732;2022-09-09T09:40:23;3.95;;;1.52;;
21412;SDS011;10867;45.084;5.732;2022-09-09T09:56:38;4.68;;;1.30;;
21412;SDS011;10867;45.084;5.732;2022-09-09T09:59:41;4.70;;;1.30;;
21412;SDS011;10867;45.084;5.732;2022-09-09T10:08:46;5.32;;;1.30;;
21412;SDS011;10867;45.084;5.732;2022-09-09T11:42:13;2.20;;;1.03;;
21412;SDS011;10867;45.084;5.732;2022-09-09T12:05:52;3.03;;;0.90;;
21412;SDS011;10867;45.084;5.732;2022-09-09T12:15:37;2.53;;;0.98;;
21412;SDS011;10867;45.084;5.732;2022-09-09T12:42:33;2.13;;;1.10;;
21412;SDS011;10867;45.084;5.732;2022-09-09T13:23:39;1.70;;;1.00;;
21412;SDS011;10867;45.084;5.732;2022-09-09T15:05:02;1.58;;;0.65;;
21412;SDS011;10867;45.084;5.732;2022-09-09T15:15:00;2.60;;;0.80;;
21412;SDS011;10867;45.084;5.732;2022-09-09T17:27:11;1.93;;;0.77;;
21412;SDS011;10867;45.084;5.732;2022-09-09T17:33:30;2.72;;;0.85;;
21412;SDS011;10867;45.084;5.732;2022-09-09T17:35:59;1.60;;;0.85;;
21412;SDS011;10867;45.084;5.732;2022-09-09T17:38:28;2.35;;;0.93;;
21412;SDS011;10867;45.084;5.732;2022-09-09T17:41:04;3.17;;;0.98;;
21412;SDS011;10867;45.084;5.732;2022-09-09T17:43:31;2.70;;;1.00;;
21412;SDS011;10867;45.084;5.732;2022-09-09T17:46:07;3.47;;;1.10;;
21412;SDS011;10867;45.084;5.732;2022-09-09T17:48:33;2.30;;;1.10;;
21412;SDS011;10867;45.084;5.732;2022-09-09T17:51:02;2.72;;;1.00;;
21412;SDS011;10867;45.084;5.732;2022-09-09T17:53:28;4.07;;;1.10;;
21412;SDS011;10867;45.084;5.732;2022-09-09T17:56:17;4.40;;;1.10;;
21412;SDS011;10867;45.084;5.732;2022-09-09T17:58:47;2.55;;;0.80;;
21412;SDS011;10867;45.084;5.732;2022-09-09T18:01:26;2.47;;;0.97;;
21412;SDS011;10867;45.084;5.732;2022-09-09T18:10:14;2.78;;;1.10;;
21412;SDS011;10867;45.084;5.732;2022-09-09T18:13:03;3.27;;;1.10;;
21412;SDS011;10867;45.084;5.732;2022-09-09T18:15:33;3.38;;;0.90;;
21412;SDS011;10867;45.084;5.732;2022-09-09T18:18:10;2.30;;;0.98;;
21412;SDS011;10867;45.084;5.732;2022-09-09T18:21:09;4.80;;;1.27;;
21412;SDS011;10867;45.084;5.732;2022-09-09T18:23:41;3.70;;;0.97;;
21412;SDS011;10867;45.084;5.732;2022-09-09T18:26:23;1.77;;;1.08;;
21412;SDS011;10867;45.084;5.732;2022-09-09T18:28:54;2.65;;;1.10;;
21412;SDS011;10867;45.084;5.732;2022-09-09T18:31:23;3.20;;;1.00;;
21412;SDS011;10867;45.084;5.732;2022-09-09T18:33:51;2.95;;;1.20;;
21412;SDS011;10867;45.084;5.732;2022-09-09T18:36:19;5.25;;;1.27;;
21412;SDS011;10867;45.084;5.732;2022-09-09T18:38:45;2.53;;;1.15;;
21412;SDS011;10867;45.084;5.732;2022-09-09T18:41:14;2.97;;;1.30;;
21412;SDS011;10867;45.084;5.732;2022-09-09T18:43:41;3.22;;;1.30;;
21412;SDS011;10867;45.084;5.732;2022-09-09T18:46:10;3.92;;;1.40;;
21412;SDS011;10867;45.084;5.732;2022-09-09T18:48:57;2.97;;;1.10;;
21412;SDS011;10867;45.084;5.732;2022-09-09T18:51:24;3.42;;;1.13;;
21412;SDS011;10867;45.084;5.732;2022-09-09T18:53:56;2.90;;;0.90;;
21412;SDS011;10867;45.084;5.732;2022-09-09T18:56:25;4.43;;;1.10;;
21412;SDS011;10867;45.084;5.732;2022-09-09T18:58:54;3.78;;;1.17;;
21412;SDS011;10867;45.084;5.732;2022-09-09T19:01:21;3.97;;;1.17;;
21412;SDS011;10867;45.084;5.732;2022-09-09T19:03:47;3.47;;;0.90;;
21412;SDS011;10867;45.084;5.732;2022-09-09T19:06:15;3.67;;;1.20;;
21412;SDS011;10867;45.084;5.732;2022-09-09T19:08:43;3.42;;;1.42;;
21412;SDS011;10867;45.084;5.732;2022-09-09T19:11:11;3.55;;;1.48;;
21412;SDS011;10867;45.084;5.732;2022-09-09T19:13:37;5.05;;;1.80;;
21412;SDS011;10867;45.084;5.732;2022-09-09T19:16:05;4.63;;;1.50;;
21412;SDS011;10867;45.084;5.732;2022-09-09T19:18:32;3.88;;;1.40;;
21412;SDS011;10867;45.084;5.732;2022-09-09T19:21:17;3.00;;;1.30;;
21412;SDS011;10867;45.084;5.732;2022-09-09T19:23:45;1.60;;;1.00;;
21412;SDS011;10867;45.084;5.732;2022-09-09T19:26:14;2.95;;;1.20;;
21412;SDS011;10867;45.084;5.732;2022-09-09T19:28:48;2.95;;;1.20;;
21412;SDS011;10867;45.084;5.732;2022-09-09T19:31:16;4.53;;;1.58;;
21412;SDS011;10867;45.084;5.732;2022-09-09T19:33:43;4.03;;;1.60;;
21412;SDS011;10867;45.084;5.732;2022-09-09T19:36:14;4.50;;;1.50;;
21412;SDS011;10867;45.084;5.732;2022-09-09T19:38:44;3.92;;;1.40;;
21412;SDS011;10867;45.084;5.732;2022-09-09T19:41:17;2.10;;;1.20;;
21412;SDS011;10867;45.084;5.732;2022-09-09T19:43:44;4.10;;;1.13;;
21412;SDS011;10867;45.084;5.732;2022-09-09T19:46:11;4.22;;;1.10;;
21412;SDS011;10867;45.084;5.732;2022-09-09T19:48:40;3.03;;;1.02;;
21412;SDS011;10867;45.084;5.732;2022-09-09T19:51:08;3.75;;;1.00;;
21412;SDS011;10867;45.084;5.732;2022-09-09T19:53:36;3.17;;;0.95;;
21412;SDS011;10867;45.084;5.732;2022-09-09T19:56:04;2.97;;;1.10;;
21412;SDS011;10867;45.084;5.732;2022-09-09T19:58:33;5.53;;;1.27;;
21412;SDS011;10867;45.084;5.732;2022-09-09T20:03:33;5.10;;;1.20;;
21412;SDS011;10867;45.084;5.732;2022-09-09T20:06:00;3.03;;;1.25;;
21412;SDS011;10867;45.084;5.732;2022-09-09T20:08:26;4.18;;;1.20;;
21412;SDS011;10867;45.084;5.732;2022-09-09T20:10:52;3.00;;;1.10;;
21412;SDS011;10867;45.084;5.732;2022-09-09T20:13:19;5.10;;;1.30;;
21412;SDS011;10867;45.084;5.732;2022-09-09T20:15:45;3.35;;;1.10;;
21412;SDS011;10867;45.084;5.732;2022-09-09T20:18:12;3.60;;;1.13;;
21412;SDS011;10867;45.084;5.732;2022-09-09T20:20:41;3.10;;;1.20;;
21412;SDS011;10867;45.084;5.732;2022-09-09T20:23:07;3.70;;;1.00;;
21412;SDS011;10867;45.084;5.732;2022-09-09T20:25:36;3.17;;;1.10;;
21412;SDS011;10867;45.084;5.732;2022-09-09T20:28:05;3.45;;;1.13;;
21412;SDS011;10867;45.084;5.732;2022-09-09T20:30:33;3.70;;;1.07;;
21412;SDS011;10867;45.084;5.732;2022-09-09T20:33:02;2.33;;;1.02;;
21412;SDS011;10867;45.084;5.732;2022-09-09T20:35:29;3.42;;;1.10;;
21412;SDS011;10867;45.084;5.732;2022-09-09T20:37:55;5.63;;;1.40;;
21412;SDS011;10867;45.084;5.732;2022-09-09T20:40:24;4.30;;;1.23;;
21412;SDS011;10867;45.084;5.732;2022-09-09T20:42:50;6.97;;;1.40;;
21412;SDS011;10867;45.084;5.732;2022-09-09T20:45:16;6.90;;;1.73;;
21412;SDS011;10867;45.084;5.732;2022-09-09T20:47:48;4.30;;;1.50;;
21412;SDS011;10867;45.084;5.732;2022-09-09T20:50:14;6.40;;;1.30;;
21412;SDS011;10867;45.084;5.732;2022-09-09T20:52:53;3.67;;;1.60;;
21412;SDS011;10867;45.084;5.732;2022-09-09T20:55:24;2.58;;;1.35;;
21412;SDS011;10867;45.084;5.732;2022-09-09T20:57:51;3.45;;;1.40;;
21412;SDS011;10867;45.084;5.732;2022-09-09T21:00:17;4.57;;;1.33;;
21412;SDS011;10867;45.084;5.732;2022-09-09T21:02:43;2.92;;;1.23;;
21412;SDS011;10867;45.084;5.732;2022-09-09T21:05:10;4.10;;;1.35;;
21412;SDS011;10867;45.084;5.732;2022-09-09T21:07:36;4.05;;;1.50;;
21412;SDS011;10867;45.084;5.732;2022-09-09T21:10:02;4.15;;;1.30;;
21412;SDS011;10867;45.084;5.732;2022-09-09T21:12:28;3.72;;;1.75;;
21412;SDS011;10867;45.084;5.732;2022-09-09T21:14:55;4.35;;;1.80;;
21412;SDS011;10867;45.084;5.732;2022-09-09T21:17:21;5.82;;;1.45;;
21412;SDS011;10867;45.084;5.732;2022-09-09T21:19:47;4.75;;;1.48;;
21412;SDS011;10867;45.084;5.732;2022-09-09T21:22:16;4.28;;;1.40;;
21412;SDS011;10867;45.084;5.732;2022-09-09T21:24:42;4.57;;;1.23;;
21412;SDS011;10867;45.084;5.732;2022-09-09T21:27:08;1.63;;;1.08;;
21412;SDS011;10867;45.084;5.732;2022-09-09T21:29:37;4.85;;;1.30;;
21412;SDS011;10867;45.084;5.732;2022-09-09T21:32:04;3.42;;;1.23;;
21412;SDS011;10867;45.084;5.732;2022-09-09T21:34:32;3.43;;;1.20;;
21412;SDS011;10867;45.084;5.732;2022-09-09T21:36:58;2.00;;;1.00;;
21412;SDS011;10867;45.084;5.732;2022-09-09T21:39:26;3.78;;;1.15;;
21412;SDS011;10867;45.084;5.732;2022-09-09T21:41:52;3.83;;;1.08;;
21412;SDS011;10867;45.084;5.732;2022-09-09T21:44:18;3.00;;;1.30;;
21412;SDS011;10867;45.084;5.732;2022-09-09T21:46:52;3.90;;;1.30;;
21412;SDS011;10867;45.084;5.732;2022-09-09T21:49:18;4.20;;;1.38;;
21412;SDS011;10867;45.084;5.732;2022-09-09T21:51:45;3.80;;;1.15;;
21412;SDS011;10867;45.084;5.732;2022-09-09T21:54:11;2.55;;;1.20;;
21412;SDS011;10867;45.084;5.732;2022-09-09T21:56:37;4.60;;;1.20;;
21412;SDS011;10867;45.084;5.732;2022-09-09T21:59:06;4.13;;;1.20;;
21412;SDS011;10867;45.084;5.732;2022-09-09T22:01:32;1.80;;;1.00;;
21412;SDS011;10867;45.084;5.732;2022-09-09T22:03:59;2.33;;;1.10;;
21412;SDS011;10867;45.084;5.732;2022-09-09T22:06:25;3.28;;;1.20;;
21412;SDS011;10867;45.084;5.732;2022-09-09T22:08:51;3.87;;;1.23;;
21412;SDS011;10867;45.084;5.732;2022-09-09T22:11:23;1.97;;;1.00;;
21412;SDS011;10867;45.084;5.732;2022-09-09T22:13:49;2.72;;;1.10;;
21412;SDS011;10867;45.084;5.732;2022-09-09T22:16:18;2.97;;;1.17;;
21412;SDS011;10867;45.084;5.732;2022-09-09T22:18:48;3.53;;;1.20;;
21412;SDS011;10867;45.084;5.732;2022-09-09T22:21:18;4.32;;;1.25;;
21412;SDS011;10867;45.084;5.732;2022-09-09T22:23:49;4.72;;;1.30;;
21412;SDS011;10867;45.084;5.732;2022-09-09T22:26:17;3.58;;;1.38;;
21412;SDS011;10867;45.084;5.732;2022-09-09T22:28:46;3.87;;;1.47;;
21412;SDS011;10867;45.084;5.732;2022-09-09T22:31:13;5.13;;;1.30;;
21412;SDS011;10867;45.084;5.732;2022-09-09T22:33:39;2.37;;;1.00;;
21412;SDS011;10867;45.084;5.732;2022-09-09T22:36:06;5.75;;;1.20;;
21412;SDS011;10867;45.084;5.732;2022-09-09T22:38:32;3.03;;;1.20;;
21412;SDS011;10867;45.084;5.732;2022-09-09T22:41:00;4.18;;;1.17;;
21412;SDS011;10867;45.084;5.732;2022-09-09T22:43:27;3.33;;;1.10;;
21412;SDS011;10867;45.084;5.732;2022-09-09T22:45:53;3.63;;;1.20;;
21412;SDS011;10867;45.084;5.732;2022-09-09T22:48:25;2.83;;;1.10;;
21412;SDS011;10867;45.084;5.732;2022-09-09T22:53:28;4.00;;;1.10;;
21412;SDS011;10867;45.084;5.732;2022-09-09T22:55:59;3.35;;;1.23;;
21412;SDS011;10867;45.084;5.732;2022-09-09T22:58:28;3.38;;;1.10;;
21412;SDS011;10867;45.084;5.732;2022-09-09T23:00:56;4.05;;;1.17;;
21412;SDS011;10867;45.084;5.732;2022-09-09T23:03:26;3.50;;;1.02;;
21412;SDS011;10867;45.084;5.732;2022-09-09T23:05:54;4.35;;;1.20;;
21412;SDS011;10867;45.084;5.732;2022-09-09T23:08:22;4.78;;;1.30;;
21412;SDS011;10867;45.084;5.732;2022-09-09T23:10:49;3.60;;;1.10;;
21412;SDS011;10867;45.084;5.732;2022-09-09T23:13:16;4.78;;;1.20;;
21412;SDS011;10867;45.084;5.732;2022-09-09T23:15:42;2.87;;;1.13;;
21412;SDS011;10867;45.084;5.732;2022-09-09T23:18:11;2.35;;;0.93;;
21412;SDS011;10867;45.084;5.732;2022-09-09T23:20:39;2.30;;;0.95;;
21412;SDS011;10867;45.084;5.732;2022-09-09T23:23:05;3.40;;;1.10;;
21412;SDS011;10867;45.084;5.732;2022-09-09T23:25:33;3.95;;;1.08;;
21412;SDS011;10867;45.084;5.732;2022-09-09T23:28:00;3.40;;;1.20;;
21412;SDS011;10867;45.084;5.732;2022-09-09T23:30:26;3.47;;;1.10;;
21412;SDS011;10867;45.084;5.732;2022-09-09T23:32:55;3.72;;;1.00;;
21412;SDS011;10867;45.084;5.732;2022-09-09T23:35:34;3.05;;;1.02;;
21412;SDS011;10867;45.084;5.732;2022-09-09T23:38:03;5.68;;;1.40;;
21412;SDS011;10867;45.084;5.732;2022-09-09T23:40:29;3.87;;;1.30;;
21412;SDS011;10867;45.084;5.732;2022-09-09T23:42:55;3.10;;;1.17;;
21412;SDS011;10867;45.084;5.732;2022-09-09T23:45:22;2.37;;;1.00;;
21412;SDS011;10867;45.084;5.732;2022-09-09T23:47:48;2.78;;;1.00;;
21412;SDS011;10867;45.084;5.732;2022-09-09T23:50:14;3.03;;;1.10;;
21412;SDS011;10867;45.084;5.732;2022-09-09T23:52:41;2.83;;;1.20;;
21412;SDS011;10867;45.084;5.732;2022-09-09T23:55:09;4.22;;;1.27;;
21412;SDS011;10867;45.084;5.732;2022-09-09T23:57:35;3.55;;;1.27;;
